sensor_id;sensor_type;location;lat;lon;timestamp;temperature;humidity
563;DHT22;266;49.514;8.294;2023-05-16T00:01:23;12.70;99.90
563;DHT22;266;49.514;8.294;2023-05-16T00:03:52;12.60;99.90
563;DHT22;266;49.514;8.294;2023-05-16T00:06:20;12.60;99.90
563;DHT22;266;49.514;8.294;2023-05-16T00:08:49;12.60;99.90
563;DHT22;266;49.514;8.294;2023-05-16T00:11:16;12.60;99.90
563;DHT22;266;49.514;8.294;2023-05-16T00:13:46;12.60;99.90
563;DHT22;266;49.514;8.294;2023-05-16T00:16:14;12.60;99.90
563;DHT22;266;49.514;8.294;2023-05-16T00:18:42;12.50;99.90
563;DHT22;266;49.514;8.294;2023-05-16T00:21:11;12.50;99.90
563;DHT22;266;49.514;8.294;2023-05-16T00:23:39;12.50;99.90
563;DHT22;266;49.514;8.294;2023-05-16T00:26:07;12.50;99.90
563;DHT22;266;49.514;8.294;2023-05-16T00:28:35;12.50;99.90
563;DHT22;266;49.514;8.294;2023-05-16T00:31:04;12.50;99.90
563;DHT22;266;49.514;8.294;2023-05-16T00:33:34;12.50;99.90
563;DHT22;266;49.514;8.294;2023-05-16T00:36:01;12.60;99.90
563;DHT22;266;49.514;8.294;2023-05-16T00:38:29;12.50;99.90
563;DHT22;266;49.514;8.294;2023-05-16T00:40:57;12.50;99.90
563;DHT22;266;49.514;8.294;2023-05-16T00:43:25;12.50;99.90
563;DHT22;266;49.514;8.294;2023-05-16T00:45:53;12.50;99.90
563;DHT22;266;49.514;8.294;2023-05-16T00:48:24;12.50;99.90
563;DHT22;266;49.514;8.294;2023-05-16T00:50:53;12.50;99.90
563;DHT22;266;49.514;8.294;2023-05-16T00:53:21;12.50;99.90
563;DHT22;266;49.514;8.294;2023-05-16T00:55:50;12.50;99.90
563;DHT22;266;49.514;8.294;2023-05-16T00:58:20;12.50;99.90
563;DHT22;266;49.514;8.294;2023-05-16T01:00:49;12.40;99.90
563;DHT22;266;49.514;8.294;2023-05-16T01:03:17;12.50;99.90
563;DHT22;266;49.514;8.294;2023-05-16T01:05:47;12.40;99.90
563;DHT22;266;49.514;8.294;2023-05-16T01:08:15;12.40;99.90
563;DHT22;266;49.514;8.294;2023-05-16T01:10:49;12.40;99.90
563;DHT22;266;49.514;8.294;2023-05-16T01:13:23;12.40;99.90
563;DHT22;266;49.514;8.294;2023-05-16T01:15:59;12.40;99.90
563;DHT22;266;49.514;8.294;2023-05-16T01:18:35;12.40;99.90
563;DHT22;266;49.514;8.294;2023-05-16T01:21:11;12.40;99.90
563;DHT22;266;49.514;8.294;2023-05-16T01:23:48;12.40;99.90
563;DHT22;266;49.514;8.294;2023-05-16T01:26:21;12.40;99.90
563;DHT22;266;49.514;8.294;2023-05-16T01:28:50;12.30;99.90
563;DHT22;266;49.514;8.294;2023-05-16T01:31:19;12.30;99.90
563;DHT22;266;49.514;8.294;2023-05-16T01:33:48;12.30;99.90
563;DHT22;266;49.514;8.294;2023-05-16T01:36:23;12.30;99.90
563;DHT22;266;49.514;8.294;2023-05-16T01:39:00;12.20;99.90
563;DHT22;266;49.514;8.294;2023-05-16T01:41:38;12.20;99.90
563;DHT22;266;49.514;8.294;2023-05-16T01:44:15;12.20;99.90
563;DHT22;266;49.514;8.294;2023-05-16T01:46:46;12.10;99.90
563;DHT22;266;49.514;8.294;2023-05-16T01:49:19;12.10;99.90
563;DHT22;266;49.514;8.294;2023-05-16T01:51:53;12.10;99.90
563;DHT22;266;49.514;8.294;2023-05-16T01:54:24;12.00;99.90
563;DHT22;266;49.514;8.294;2023-05-16T01:56:55;12.00;99.90
563;DHT22;266;49.514;8.294;2023-05-16T01:59:23;12.00;99.90
563;DHT22;266;49.514;8.294;2023-05-16T02:01:53;12.00;99.90
563;DHT22;266;49.514;8.294;2023-05-16T02:04:21;11.90;99.90
563;DHT22;266;49.514;8.294;2023-05-16T02:06:50;11.90;99.90
563;DHT22;266;49.514;8.294;2023-05-16T02:09:24;11.90;99.90
563;DHT22;266;49.514;8.294;2023-05-16T02:11:54;11.80;99.90
563;DHT22;266;49.514;8.294;2023-05-16T02:14:22;11.80;99.90
563;DHT22;266;49.514;8.294;2023-05-16T02:16:51;11.70;99.90
563;DHT22;266;49.514;8.294;2023-05-16T02:19:19;11.70;99.90
563;DHT22;266;49.514;8.294;2023-05-16T02:21:47;11.70;99.90
563;DHT22;266;49.514;8.294;2023-05-16T02:24:15;11.70;99.90
563;DHT22;266;49.514;8.294;2023-05-16T02:26:43;11.60;99.90
563;DHT22;266;49.514;8.294;2023-05-16T02:29:13;11.60;99.90
563;DHT22;266;49.514;8.294;2023-05-16T02:31:42;11.60;99.90
563;DHT22;266;49.514;8.294;2023-05-16T02:34:09;11.60;99.90
563;DHT22;266;49.514;8.294;2023-05-16T02:36:38;11.60;99.90
563;DHT22;266;49.514;8.294;2023-05-16T02:39:05;11.60;99.90
563;DHT22;266;49.514;8.294;2023-05-16T02:41:36;11.60;99.90
563;DHT22;266;49.514;8.294;2023-05-16T02:44:04;11.60;99.90
563;DHT22;266;49.514;8.294;2023-05-16T02:46:34;11.50;99.90
563;DHT22;266;49.514;8.294;2023-05-16T02:49:02;11.60;99.90
563;DHT22;266;49.514;8.294;2023-05-16T02:51:30;11.50;99.90
563;DHT22;266;49.514;8.294;2023-05-16T02:53:58;11.60;99.90
563;DHT22;266;49.514;8.294;2023-05-16T02:56:27;11.50;99.90
563;DHT22;266;49.514;8.294;2023-05-16T02:58:55;11.50;99.90
563;DHT22;266;49.514;8.294;2023-05-16T03:01:23;11.50;99.90
563;DHT22;266;49.514;8.294;2023-05-16T03:03:52;11.50;99.90
563;DHT22;266;49.514;8.294;2023-05-16T03:06:20;11.50;99.90
563;DHT22;266;49.514;8.294;2023-05-16T03:08:48;11.40;99.90
563;DHT22;266;49.514;8.294;2023-05-16T03:11:17;11.40;99.90
563;DHT22;266;49.514;8.294;2023-05-16T03:13:47;11.40;99.90
563;DHT22;266;49.514;8.294;2023-05-16T03:16:15;11.40;99.90
563;DHT22;266;49.514;8.294;2023-05-16T03:18:43;11.40;99.90
563;DHT22;266;49.514;8.294;2023-05-16T03:21:13;11.30;99.90
563;DHT22;266;49.514;8.294;2023-05-16T03:23:42;11.30;99.90
563;DHT22;266;49.514;8.294;2023-05-16T03:26:10;11.30;99.90
563;DHT22;266;49.514;8.294;2023-05-16T03:28:38;11.30;99.90
563;DHT22;266;49.514;8.294;2023-05-16T03:31:06;11.30;99.90
563;DHT22;266;49.514;8.294;2023-05-16T03:33:33;11.30;99.90
563;DHT22;266;49.514;8.294;2023-05-16T03:36:01;11.30;99.90
563;DHT22;266;49.514;8.294;2023-05-16T03:38:31;11.20;99.90
563;DHT22;266;49.514;8.294;2023-05-16T03:40:59;11.20;99.90
563;DHT22;266;49.514;8.294;2023-05-16T03:43:27;11.20;99.90
563;DHT22;266;49.514;8.294;2023-05-16T03:45:55;11.30;99.90
563;DHT22;266;49.514;8.294;2023-05-16T03:48:23;11.20;99.90
563;DHT22;266;49.514;8.294;2023-05-16T03:50:51;11.20;99.90
563;DHT22;266;49.514;8.294;2023-05-16T03:53:20;11.20;99.90
563;DHT22;266;49.514;8.294;2023-05-16T03:55:49;11.20;99.90
563;DHT22;266;49.514;8.294;2023-05-16T03:58:17;11.20;99.90
563;DHT22;266;49.514;8.294;2023-05-16T04:00:45;11.30;99.90
563;DHT22;266;49.514;8.294;2023-05-16T04:03:13;11.30;99.90
563;DHT22;266;49.514;8.294;2023-05-16T04:05:41;11.30;99.90
563;DHT22;266;49.514;8.294;2023-05-16T04:08:09;11.30;99.90
563;DHT22;266;49.514;8.294;2023-05-16T04:10:37;11.30;99.90
563;DHT22;266;49.514;8.294;2023-05-16T04:13:07;11.40;99.90
563;DHT22;266;49.514;8.294;2023-05-16T04:15:35;11.40;99.90
563;DHT22;266;49.514;8.294;2023-05-16T04:18:04;11.50;99.90
563;DHT22;266;49.514;8.294;2023-05-16T04:20:31;11.50;99.90
563;DHT22;266;49.514;8.294;2023-05-16T04:23:00;11.50;99.90
563;DHT22;266;49.514;8.294;2023-05-16T04:25:28;11.50;99.90
563;DHT22;266;49.514;8.294;2023-05-16T04:27:56;11.50;99.90
563;DHT22;266;49.514;8.294;2023-05-16T04:30:26;11.60;99.90
563;DHT22;266;49.514;8.294;2023-05-16T04:32:54;11.60;99.90
563;DHT22;266;49.514;8.294;2023-05-16T04:35:22;11.60;99.90
563;DHT22;266;49.514;8.294;2023-05-16T04:37:51;11.60;99.90
563;DHT22;266;49.514;8.294;2023-05-16T04:40:18;11.70;99.90
563;DHT22;266;49.514;8.294;2023-05-16T04:42:46;11.70;99.90
563;DHT22;266;49.514;8.294;2023-05-16T04:45:14;11.70;99.90
563;DHT22;266;49.514;8.294;2023-05-16T04:47:44;11.70;99.90
563;DHT22;266;49.514;8.294;2023-05-16T04:50:12;11.70;99.90
563;DHT22;266;49.514;8.294;2023-05-16T04:52:41;11.70;99.90
563;DHT22;266;49.514;8.294;2023-05-16T04:55:10;11.70;99.90
563;DHT22;266;49.514;8.294;2023-05-16T04:57:38;11.80;99.90
563;DHT22;266;49.514;8.294;2023-05-16T05:00:06;11.80;99.90
563;DHT22;266;49.514;8.294;2023-05-16T05:02:35;11.80;99.90
563;DHT22;266;49.514;8.294;2023-05-16T05:05:07;11.80;99.90
563;DHT22;266;49.514;8.294;2023-05-16T05:07:35;11.90;99.90
563;DHT22;266;49.514;8.294;2023-05-16T05:10:03;12.00;99.90
563;DHT22;266;49.514;8.294;2023-05-16T05:12:33;12.00;99.90
563;DHT22;266;49.514;8.294;2023-05-16T05:15:02;12.10;99.90
563;DHT22;266;49.514;8.294;2023-05-16T05:17:30;12.20;99.90
563;DHT22;266;49.514;8.294;2023-05-16T05:19:58;12.20;99.90
563;DHT22;266;49.514;8.294;2023-05-16T05:22:30;12.30;99.90
563;DHT22;266;49.514;8.294;2023-05-16T05:24:58;12.30;99.90
563;DHT22;266;49.514;8.294;2023-05-16T05:27:26;12.30;99.90
563;DHT22;266;49.514;8.294;2023-05-16T05:29:54;12.30;99.90
563;DHT22;266;49.514;8.294;2023-05-16T05:32:22;12.30;99.90
563;DHT22;266;49.514;8.294;2023-05-16T05:34:50;12.40;99.90
563;DHT22;266;49.514;8.294;2023-05-16T05:37:18;12.40;99.90
563;DHT22;266;49.514;8.294;2023-05-16T05:39:48;12.40;99.90
563;DHT22;266;49.514;8.294;2023-05-16T05:42:16;12.50;99.90
563;DHT22;266;49.514;8.294;2023-05-16T05:44:43;12.40;99.90
563;DHT22;266;49.514;8.294;2023-05-16T05:47:11;12.40;99.90
563;DHT22;266;49.514;8.294;2023-05-16T05:49:41;12.40;99.90
563;DHT22;266;49.514;8.294;2023-05-16T05:52:09;12.40;99.90
563;DHT22;266;49.514;8.294;2023-05-16T05:54:37;12.40;99.90
563;DHT22;266;49.514;8.294;2023-05-16T05:57:10;12.50;99.90
563;DHT22;266;49.514;8.294;2023-05-16T05:59:38;12.60;99.90
563;DHT22;266;49.514;8.294;2023-05-16T06:02:07;12.60;99.90
563;DHT22;266;49.514;8.294;2023-05-16T06:04:35;12.60;99.90
563;DHT22;266;49.514;8.294;2023-05-16T06:07:03;12.60;99.90
563;DHT22;266;49.514;8.294;2023-05-16T06:09:31;12.60;99.90
563;DHT22;266;49.514;8.294;2023-05-16T06:11:59;12.60;99.90
563;DHT22;266;49.514;8.294;2023-05-16T06:14:29;12.60;99.90
563;DHT22;266;49.514;8.294;2023-05-16T06:16:57;12.60;99.90
563;DHT22;266;49.514;8.294;2023-05-16T06:19:25;12.70;99.90
563;DHT22;266;49.514;8.294;2023-05-16T06:21:53;12.70;99.90
563;DHT22;266;49.514;8.294;2023-05-16T06:24:21;12.70;99.90
563;DHT22;266;49.514;8.294;2023-05-16T06:26:49;12.70;99.90
563;DHT22;266;49.514;8.294;2023-05-16T06:29:18;12.70;99.90
563;DHT22;266;49.514;8.294;2023-05-16T06:31:48;12.70;99.90
563;DHT22;266;49.514;8.294;2023-05-16T06:34:16;12.70;99.90
563;DHT22;266;49.514;8.294;2023-05-16T06:36:44;12.70;99.90
563;DHT22;266;49.514;8.294;2023-05-16T06:39:11;12.80;99.90
563;DHT22;266;49.514;8.294;2023-05-16T06:41:39;12.80;99.90
563;DHT22;266;49.514;8.294;2023-05-16T06:44:07;12.80;99.90
563;DHT22;266;49.514;8.294;2023-05-16T06:46:35;12.90;99.90
563;DHT22;266;49.514;8.294;2023-05-16T06:49:05;12.80;99.90
563;DHT22;266;49.514;8.294;2023-05-16T06:51:34;12.90;99.90
563;DHT22;266;49.514;8.294;2023-05-16T06:54:02;12.90;99.90
563;DHT22;266;49.514;8.294;2023-05-16T06:56:30;12.90;99.90
563;DHT22;266;49.514;8.294;2023-05-16T06:58:58;13.00;99.90
563;DHT22;266;49.514;8.294;2023-05-16T07:01:27;13.00;99.90
563;DHT22;266;49.514;8.294;2023-05-16T07:03:55;13.00;99.90
563;DHT22;266;49.514;8.294;2023-05-16T07:06:25;13.00;99.90
563;DHT22;266;49.514;8.294;2023-05-16T07:08:53;12.90;99.90
563;DHT22;266;49.514;8.294;2023-05-16T07:11:21;12.90;99.90
563;DHT22;266;49.514;8.294;2023-05-16T07:13:49;13.00;99.90
563;DHT22;266;49.514;8.294;2023-05-16T07:16:17;13.10;99.90
563;DHT22;266;49.514;8.294;2023-05-16T07:18:45;13.20;99.90
563;DHT22;266;49.514;8.294;2023-05-16T07:21:13;13.40;99.90
563;DHT22;266;49.514;8.294;2023-05-16T07:23:42;13.40;99.90
563;DHT22;266;49.514;8.294;2023-05-16T07:26:10;13.40;99.90
563;DHT22;266;49.514;8.294;2023-05-16T07:28:38;13.40;99.90
563;DHT22;266;49.514;8.294;2023-05-16T07:31:06;13.30;99.90
563;DHT22;266;49.514;8.294;2023-05-16T07:33:34;13.20;99.90
563;DHT22;266;49.514;8.294;2023-05-16T07:36:03;13.20;99.90
563;DHT22;266;49.514;8.294;2023-05-16T07:38:44;13.20;99.90
563;DHT22;266;49.514;8.294;2023-05-16T07:41:12;13.20;99.90
563;DHT22;266;49.514;8.294;2023-05-16T07:43:40;13.30;99.90
563;DHT22;266;49.514;8.294;2023-05-16T07:46:09;13.50;99.90
563;DHT22;266;49.514;8.294;2023-05-16T07:48:37;13.50;99.90
563;DHT22;266;49.514;8.294;2023-05-16T07:51:05;13.40;99.90
563;DHT22;266;49.514;8.294;2023-05-16T07:53:33;13.30;99.90
563;DHT22;266;49.514;8.294;2023-05-16T07:56:03;13.20;99.90
563;DHT22;266;49.514;8.294;2023-05-16T07:58:31;13.10;99.90
563;DHT22;266;49.514;8.294;2023-05-16T08:00:59;12.90;99.90
563;DHT22;266;49.514;8.294;2023-05-16T08:03:27;12.90;99.90
563;DHT22;266;49.514;8.294;2023-05-16T08:05:55;12.70;99.90
563;DHT22;266;49.514;8.294;2023-05-16T08:08:23;12.60;99.90
563;DHT22;266;49.514;8.294;2023-05-16T08:10:51;12.60;99.90
563;DHT22;266;49.514;8.294;2023-05-16T08:13:21;12.50;99.90
563;DHT22;266;49.514;8.294;2023-05-16T08:15:49;12.40;99.90
563;DHT22;266;49.514;8.294;2023-05-16T08:18:17;12.40;99.90
563;DHT22;266;49.514;8.294;2023-05-16T08:20:48;12.40;99.90
563;DHT22;266;49.514;8.294;2023-05-16T08:23:17;12.30;99.90
563;DHT22;266;49.514;8.294;2023-05-16T08:25:45;12.40;99.90
563;DHT22;266;49.514;8.294;2023-05-16T08:28:15;12.40;99.90
563;DHT22;266;49.514;8.294;2023-05-16T08:30:44;12.40;99.90
563;DHT22;266;49.514;8.294;2023-05-16T08:33:13;12.40;99.90
563;DHT22;266;49.514;8.294;2023-05-16T08:35:42;12.30;99.90
563;DHT22;266;49.514;8.294;2023-05-16T08:38:10;12.40;99.90
563;DHT22;266;49.514;8.294;2023-05-16T08:40:39;12.40;99.90
563;DHT22;266;49.514;8.294;2023-05-16T08:43:08;12.40;99.90
563;DHT22;266;49.514;8.294;2023-05-16T08:45:36;12.50;99.90
563;DHT22;266;49.514;8.294;2023-05-16T08:48:06;12.50;99.90
563;DHT22;266;49.514;8.294;2023-05-16T08:50:36;12.50;99.90
563;DHT22;266;49.514;8.294;2023-05-16T08:53:06;12.60;99.90
563;DHT22;266;49.514;8.294;2023-05-16T08:55:35;12.60;99.90
563;DHT22;266;49.514;8.294;2023-05-16T08:58:05;12.60;99.90
563;DHT22;266;49.514;8.294;2023-05-16T09:00:36;12.60;99.90
563;DHT22;266;49.514;8.294;2023-05-16T09:03:06;12.60;99.90
563;DHT22;266;49.514;8.294;2023-05-16T09:05:35;12.60;99.90
563;DHT22;266;49.514;8.294;2023-05-16T09:08:03;12.70;99.90
563;DHT22;266;49.514;8.294;2023-05-16T09:10:32;12.70;99.90
563;DHT22;266;49.514;8.294;2023-05-16T09:13:00;12.80;99.90
563;DHT22;266;49.514;8.294;2023-05-16T09:15:31;12.70;99.90
563;DHT22;266;49.514;8.294;2023-05-16T09:18:00;12.70;99.90
563;DHT22;266;49.514;8.294;2023-05-16T09:20:30;12.70;99.90
563;DHT22;266;49.514;8.294;2023-05-16T09:22:59;12.70;99.90
563;DHT22;266;49.514;8.294;2023-05-16T09:25:28;12.70;99.90
563;DHT22;266;49.514;8.294;2023-05-16T09:27:59;12.80;99.90
563;DHT22;266;49.514;8.294;2023-05-16T09:30:30;12.80;99.90
563;DHT22;266;49.514;8.294;2023-05-16T09:32:59;12.90;99.90
563;DHT22;266;49.514;8.294;2023-05-16T09:35:29;12.90;99.90
563;DHT22;266;49.514;8.294;2023-05-16T09:38:01;12.90;99.90
563;DHT22;266;49.514;8.294;2023-05-16T09:40:29;12.90;99.90
563;DHT22;266;49.514;8.294;2023-05-16T09:43:04;12.90;99.90
563;DHT22;266;49.514;8.294;2023-05-16T09:45:32;12.80;99.90
563;DHT22;266;49.514;8.294;2023-05-16T09:48:03;12.80;99.90
563;DHT22;266;49.514;8.294;2023-05-16T09:50:34;12.80;99.90
563;DHT22;266;49.514;8.294;2023-05-16T09:53:02;12.60;99.90
563;DHT22;266;49.514;8.294;2023-05-16T09:55:31;12.50;99.90
563;DHT22;266;49.514;8.294;2023-05-16T09:57:59;12.50;99.90
563;DHT22;266;49.514;8.294;2023-05-16T10:00:28;12.40;99.90
563;DHT22;266;49.514;8.294;2023-05-16T10:02:58;12.40;99.90
563;DHT22;266;49.514;8.294;2023-05-16T10:05:30;12.30;99.90
563;DHT22;266;49.514;8.294;2023-05-16T10:08:01;12.30;99.90
563;DHT22;266;49.514;8.294;2023-05-16T10:10:30;12.40;99.90
563;DHT22;266;49.514;8.294;2023-05-16T10:13:00;12.40;99.90
563;DHT22;266;49.514;8.294;2023-05-16T10:15:30;12.40;99.90
563;DHT22;266;49.514;8.294;2023-05-16T10:17:58;12.40;99.90
563;DHT22;266;49.514;8.294;2023-05-16T10:20:27;12.40;99.90
563;DHT22;266;49.514;8.294;2023-05-16T10:22:57;12.50;99.90
563;DHT22;266;49.514;8.294;2023-05-16T10:25:31;12.40;99.90
563;DHT22;266;49.514;8.294;2023-05-16T10:28:02;12.50;99.90
563;DHT22;266;49.514;8.294;2023-05-16T10:30:32;12.50;99.90
563;DHT22;266;49.514;8.294;2023-05-16T10:33:00;12.50;99.90
563;DHT22;266;49.514;8.294;2023-05-16T10:35:29;12.40;99.90
563;DHT22;266;49.514;8.294;2023-05-16T10:37:59;12.30;99.90
563;DHT22;266;49.514;8.294;2023-05-16T10:40:29;12.30;99.90
563;DHT22;266;49.514;8.294;2023-05-16T10:42:59;12.30;99.90
563;DHT22;266;49.514;8.294;2023-05-16T10:45:27;12.30;99.90
563;DHT22;266;49.514;8.294;2023-05-16T10:47:57;12.30;99.90
563;DHT22;266;49.514;8.294;2023-05-16T10:50:33;12.30;99.90
563;DHT22;266;49.514;8.294;2023-05-16T10:53:17;12.30;99.90
563;DHT22;266;49.514;8.294;2023-05-16T10:56:05;12.40;99.90
563;DHT22;266;49.514;8.294;2023-05-16T10:58:41;12.40;99.90
563;DHT22;266;49.514;8.294;2023-05-16T11:01:17;12.50;99.90
563;DHT22;266;49.514;8.294;2023-05-16T11:04:02;12.40;99.90
563;DHT22;266;49.514;8.294;2023-05-16T11:06:31;12.40;99.90
563;DHT22;266;49.514;8.294;2023-05-16T11:09:07;12.40;99.90
563;DHT22;266;49.514;8.294;2023-05-16T11:11:42;12.30;99.90
563;DHT22;266;49.514;8.294;2023-05-16T11:14:19;12.30;99.90
563;DHT22;266;49.514;8.294;2023-05-16T11:16:49;12.30;99.90
563;DHT22;266;49.514;8.294;2023-05-16T11:19:32;12.30;99.90
563;DHT22;266;49.514;8.294;2023-05-16T11:22:08;12.40;99.90
563;DHT22;266;49.514;8.294;2023-05-16T11:24:37;12.30;99.90
563;DHT22;266;49.514;8.294;2023-05-16T11:27:07;12.20;99.90
563;DHT22;266;49.514;8.294;2023-05-16T11:29:35;12.20;99.90
563;DHT22;266;49.514;8.294;2023-05-16T11:32:04;12.10;99.90
563;DHT22;266;49.514;8.294;2023-05-16T11:34:35;12.10;99.90
563;DHT22;266;49.514;8.294;2023-05-16T11:37:05;12.10;99.90
563;DHT22;266;49.514;8.294;2023-05-16T11:39:33;12.10;99.90
563;DHT22;266;49.514;8.294;2023-05-16T11:42:01;12.20;99.90
563;DHT22;266;49.514;8.294;2023-05-16T11:44:30;12.30;99.90
563;DHT22;266;49.514;8.294;2023-05-16T11:46:59;12.30;99.90
563;DHT22;266;49.514;8.294;2023-05-16T11:49:28;12.40;99.90
563;DHT22;266;49.514;8.294;2023-05-16T11:51:56;12.40;99.90
563;DHT22;266;49.514;8.294;2023-05-16T11:54:24;12.30;99.90
563;DHT22;266;49.514;8.294;2023-05-16T11:56:53;12.40;99.90
563;DHT22;266;49.514;8.294;2023-05-16T11:59:21;12.40;99.90
563;DHT22;266;49.514;8.294;2023-05-16T12:01:50;12.50;99.90
563;DHT22;266;49.514;8.294;2023-05-16T12:04:18;12.50;99.90
563;DHT22;266;49.514;8.294;2023-05-16T12:06:58;12.60;99.90
563;DHT22;266;49.514;8.294;2023-05-16T12:09:27;12.60;99.90
563;DHT22;266;49.514;8.294;2023-05-16T12:11:55;12.60;99.90
563;DHT22;266;49.514;8.294;2023-05-16T12:14:24;12.70;99.90
563;DHT22;266;49.514;8.294;2023-05-16T12:16:53;12.80;99.90
563;DHT22;266;49.514;8.294;2023-05-16T12:19:22;12.90;99.90
563;DHT22;266;49.514;8.294;2023-05-16T12:21:53;13.00;99.90
563;DHT22;266;49.514;8.294;2023-05-16T12:24:28;13.00;99.90
563;DHT22;266;49.514;8.294;2023-05-16T12:26:56;13.10;99.90
563;DHT22;266;49.514;8.294;2023-05-16T12:29:25;13.10;99.90
563;DHT22;266;49.514;8.294;2023-05-16T12:31:54;13.10;99.90
563;DHT22;266;49.514;8.294;2023-05-16T12:34:22;13.10;99.90
563;DHT22;266;49.514;8.294;2023-05-16T12:36:51;13.10;99.90
563;DHT22;266;49.514;8.294;2023-05-16T12:39:21;13.10;99.90
563;DHT22;266;49.514;8.294;2023-05-16T12:41:49;13.20;99.90
563;DHT22;266;49.514;8.294;2023-05-16T12:44:18;13.20;99.90
563;DHT22;266;49.514;8.294;2023-05-16T12:46:49;13.20;99.90
563;DHT22;266;49.514;8.294;2023-05-16T12:49:20;13.30;99.90
563;DHT22;266;49.514;8.294;2023-05-16T12:51:49;13.30;99.90
563;DHT22;266;49.514;8.294;2023-05-16T12:54:18;13.40;99.90
563;DHT22;266;49.514;8.294;2023-05-16T12:56:48;13.50;99.90
563;DHT22;266;49.514;8.294;2023-05-16T12:59:16;13.50;99.90
563;DHT22;266;49.514;8.294;2023-05-16T13:01:45;13.60;99.90
563;DHT22;266;49.514;8.294;2023-05-16T13:04:13;13.70;99.90
563;DHT22;266;49.514;8.294;2023-05-16T13:06:46;13.70;99.90
563;DHT22;266;49.514;8.294;2023-05-16T13:09:25;13.90;99.90
563;DHT22;266;49.514;8.294;2023-05-16T13:11:58;14.00;99.90
563;DHT22;266;49.514;8.294;2023-05-16T13:14:26;14.20;99.90
563;DHT22;266;49.514;8.294;2023-05-16T13:16:54;14.30;99.90
563;DHT22;266;49.514;8.294;2023-05-16T13:19:22;14.50;99.90
563;DHT22;266;49.514;8.294;2023-05-16T13:21:52;14.60;99.90
563;DHT22;266;49.514;8.294;2023-05-16T13:24:20;14.90;99.90
563;DHT22;266;49.514;8.294;2023-05-16T13:26:48;15.10;99.90
563;DHT22;266;49.514;8.294;2023-05-16T13:29:16;15.30;99.90
563;DHT22;266;49.514;8.294;2023-05-16T13:31:44;15.60;99.90
563;DHT22;266;49.514;8.294;2023-05-16T13:34:12;16.40;99.90
563;DHT22;266;49.514;8.294;2023-05-16T13:36:40;17.40;99.90
563;DHT22;266;49.514;8.294;2023-05-16T13:39:21;18.30;99.90
563;DHT22;266;49.514;8.294;2023-05-16T13:41:49;18.90;99.90
563;DHT22;266;49.514;8.294;2023-05-16T13:44:18;19.60;99.90
563;DHT22;266;49.514;8.294;2023-05-16T13:46:47;20.00;99.90
563;DHT22;266;49.514;8.294;2023-05-16T13:49:15;20.40;99.90
563;DHT22;266;49.514;8.294;2023-05-16T13:51:43;20.70;99.90
563;DHT22;266;49.514;8.294;2023-05-16T13:54:11;20.90;99.90
563;DHT22;266;49.514;8.294;2023-05-16T13:56:41;21.20;99.90
563;DHT22;266;49.514;8.294;2023-05-16T13:59:09;21.50;99.90
563;DHT22;266;49.514;8.294;2023-05-16T14:01:44;21.60;99.90
563;DHT22;266;49.514;8.294;2023-05-16T14:04:12;21.40;99.90
563;DHT22;266;49.514;8.294;2023-05-16T14:06:40;21.40;99.90
563;DHT22;266;49.514;8.294;2023-05-16T14:09:08;21.50;99.90
563;DHT22;266;49.514;8.294;2023-05-16T14:11:36;21.80;99.90
563;DHT22;266;49.514;8.294;2023-05-16T14:14:06;21.70;99.90
563;DHT22;266;49.514;8.294;2023-05-16T14:16:33;21.30;99.90
563;DHT22;266;49.514;8.294;2023-05-16T14:19:02;21.10;99.90
563;DHT22;266;49.514;8.294;2023-05-16T14:21:29;21.10;99.90
563;DHT22;266;49.514;8.294;2023-05-16T14:23:57;21.20;99.90
563;DHT22;266;49.514;8.294;2023-05-16T14:26:25;21.50;99.90
563;DHT22;266;49.514;8.294;2023-05-16T14:28:53;21.60;99.90
563;DHT22;266;49.514;8.294;2023-05-16T14:31:23;21.80;99.90
563;DHT22;266;49.514;8.294;2023-05-16T14:33:51;22.00;99.90
563;DHT22;266;49.514;8.294;2023-05-16T14:36:20;21.60;99.90
563;DHT22;266;49.514;8.294;2023-05-16T14:38:48;21.60;99.90
563;DHT22;266;49.514;8.294;2023-05-16T14:41:16;21.50;99.90
563;DHT22;266;49.514;8.294;2023-05-16T14:43:45;21.10;99.90
563;DHT22;266;49.514;8.294;2023-05-16T14:46:13;20.10;99.90
563;DHT22;266;49.514;8.294;2023-05-16T14:48:42;19.40;99.90
563;DHT22;266;49.514;8.294;2023-05-16T14:51:10;18.60;99.90
563;DHT22;266;49.514;8.294;2023-05-16T14:53:39;18.40;99.90
563;DHT22;266;49.514;8.294;2023-05-16T14:56:07;18.70;99.90
563;DHT22;266;49.514;8.294;2023-05-16T14:58:35;19.30;99.90
563;DHT22;266;49.514;8.294;2023-05-16T15:01:03;19.90;99.90
563;DHT22;266;49.514;8.294;2023-05-16T15:03:31;20.40;99.90
563;DHT22;266;49.514;8.294;2023-05-16T15:06:21;20.50;99.90
563;DHT22;266;49.514;8.294;2023-05-16T15:08:49;20.40;99.90
563;DHT22;266;49.514;8.294;2023-05-16T15:11:17;20.30;99.90
563;DHT22;266;49.514;8.294;2023-05-16T15:13:45;20.50;99.90
563;DHT22;266;49.514;8.294;2023-05-16T15:16:14;20.50;99.90
563;DHT22;266;49.514;8.294;2023-05-16T15:18:42;20.40;99.90
563;DHT22;266;49.514;8.294;2023-05-16T15:21:10;20.10;99.90
563;DHT22;266;49.514;8.294;2023-05-16T15:23:39;19.70;99.90
563;DHT22;266;49.514;8.294;2023-05-16T15:26:08;19.50;99.90
563;DHT22;266;49.514;8.294;2023-05-16T15:28:36;19.60;99.90
563;DHT22;266;49.514;8.294;2023-05-16T15:31:04;19.80;99.90
563;DHT22;266;49.514;8.294;2023-05-16T15:33:32;19.90;99.90
563;DHT22;266;49.514;8.294;2023-05-16T15:36:00;19.80;99.90
563;DHT22;266;49.514;8.294;2023-05-16T15:38:30;19.70;99.90
563;DHT22;266;49.514;8.294;2023-05-16T15:41:00;19.40;99.90
563;DHT22;266;49.514;8.294;2023-05-16T15:43:51;19.30;99.90
563;DHT22;266;49.514;8.294;2023-05-16T15:46:19;19.30;99.90
563;DHT22;266;49.514;8.294;2023-05-16T15:48:50;19.30;99.90
563;DHT22;266;49.514;8.294;2023-05-16T15:51:18;19.10;99.90
563;DHT22;266;49.514;8.294;2023-05-16T15:53:47;19.10;99.90
563;DHT22;266;49.514;8.294;2023-05-16T15:56:17;19.00;99.90
563;DHT22;266;49.514;8.294;2023-05-16T15:58:45;18.60;99.90
563;DHT22;266;49.514;8.294;2023-05-16T16:01:14;18.30;99.90
563;DHT22;266;49.514;8.294;2023-05-16T16:03:43;18.30;99.90
563;DHT22;266;49.514;8.294;2023-05-16T16:06:12;18.40;99.90
563;DHT22;266;49.514;8.294;2023-05-16T16:08:40;18.40;99.90
563;DHT22;266;49.514;8.294;2023-05-16T16:11:11;18.40;99.90
563;DHT22;266;49.514;8.294;2023-05-16T16:13:40;18.40;99.90
563;DHT22;266;49.514;8.294;2023-05-16T16:16:08;18.40;99.90
563;DHT22;266;49.514;8.294;2023-05-16T16:18:36;18.30;99.90
563;DHT22;266;49.514;8.294;2023-05-16T16:21:04;18.30;99.90
563;DHT22;266;49.514;8.294;2023-05-16T16:23:32;18.20;99.90
563;DHT22;266;49.514;8.294;2023-05-16T16:26:00;17.90;99.90
563;DHT22;266;49.514;8.294;2023-05-16T16:28:28;18.00;99.90
563;DHT22;266;49.514;8.294;2023-05-16T16:30:58;18.10;99.90
563;DHT22;266;49.514;8.294;2023-05-16T16:33:26;18.00;99.90
563;DHT22;266;49.514;8.294;2023-05-16T16:35:54;18.00;99.90
563;DHT22;266;49.514;8.294;2023-05-16T16:38:22;17.90;99.90
563;DHT22;266;49.514;8.294;2023-05-16T16:40:49;17.70;99.90
563;DHT22;266;49.514;8.294;2023-05-16T16:43:18;17.60;99.90
563;DHT22;266;49.514;8.294;2023-05-16T16:45:45;17.50;99.90
563;DHT22;266;49.514;8.294;2023-05-16T16:48:15;17.50;99.90